Pagina principale
METAR-TAF:

METAR-TAF

Aeroporti :

Aeroporto di Niš-Costantino il Grande

Niš, Serbia

latitudine: 43-20N, longitudine: 021-54E, altezza: 202 m

Osservazione

Il bollettino è stato emesso 24 minuti fa, alle 02:00 UTC
Vento calmo
Temperature 21°C
Umidità 88%
Pressione 1019 hPa
Visibilità 10 km o più
nessuna nube inferiore a 1500 m e nessun cumulonembo

METAR: LYNI 210200Z 00000KT CAVOK 21/19 Q1019 NOSIG

Ora: 04:24 (02:24 UTC)

Previsione

Il bollettino è stato emesso 3 ore e 24 minuti fa, alle 23:00 UTC
Previsione valida dal 21 alle 00 UTC al 21 alle 24 UTC
Vento 5 kt da est/nord-est
Visibilità 10 km o più
nessuna nube inferiore a 1500 m e nessun cumulonembo

TAF: LYNI 202300Z 2100/2124 06005KT CAVOK TX37/2114Z TN22/2103Z

Osservazioni e previsioni meteorologiche di più di 4000 aeroporti (messaggi METAR e TAF).

Le stazioni disponibili sono rappresentate dai dischi gialli e rossi sulla carta.

Puntare il mouse per vedere il nome della stazione.

Clicca sopra per visualizzare le osservazioni e previsioni meteorologiche.

Per cambiare la mappa : fare clic sui pulsanti verdi con una croce nera per ingrandire, il pulsante verde con un trattino per diminuire, o sulla freccia verde per le mappe adiacenti.


METAR-TAF: